Time;durP1;ratioP1;P1;durP2;ratioP2;P2;SDS_P1;SDS_P2;PMS_P1;PMS_P2;Temp;Humidity;BMP_temperature;BMP_pressure;BME280_temperature;BME280_humidity;BME280_pressure;Samples;Min_cycle;Max_cycle;Signal;HPM_P1;HPM_P2
2023/11/08 00:01:08;;;;;;;4.27;1.30;;;9.80;1.00;;;;;;4992889;28;20454;-84
2023/11/08 00:03:36;;;;;;;2.10;1.13;;;9.80;1.00;;;;;;5016081;28;20941;-84
2023/11/08 00:06:01;;;;;;;9.77;0.90;;;9.80;1.00;;;;;;4996710;28;20184;-83
2023/11/08 00:08:27;;;;;;;7.87;1.50;;;9.80;1.00;;;;;;4996196;28;20500;-84
2023/11/08 00:10:54;;;;;;;3.17;1.30;;;9.80;1.00;;;;;;4994073;28;20230;-83
2023/11/08 00:13:20;;;;;;;4.87;1.50;;;9.80;1.00;;;;;;5000177;28;20180;-84
2023/11/08 00:15:50;;;;;;;3.93;1.40;;;9.80;1.00;;;;;;4998828;28;20462;-84
2023/11/08 00:18:18;;;;;;;5.37;1.37;;;9.80;1.00;;;;;;5000465;28;20184;-84
2023/11/08 00:20:45;;;;;;;2.80;1.20;;;9.80;1.00;;;;;;5000928;28;20865;-82
2023/11/08 00:23:16;;;;;;;5.43;1.80;;;9.80;1.00;;;;;;5001834;28;20439;-84
2023/11/08 00:25:43;;;;;;;8.73;2.20;;;9.80;1.00;;;;;;4991138;28;20586;-84
2023/11/08 00:28:09;;;;;;;7.00;1.10;;;9.80;1.00;;;;;;4996973;28;20980;-84
2023/11/08 00:30:40;;;;;;;2.93;1.60;;;9.70;99.90;;;;;;5000707;28;20466;-84
2023/11/08 00:33:08;;;;;;;6.03;1.47;;;9.70;99.90;;;;;;4995331;28;20204;-84
2023/11/08 00:35:38;;;;;;;3.00;1.33;;;9.70;99.90;;;;;;4993337;28;20451;-84
2023/11/08 00:38:07;;;;;;;3.00;1.27;;;9.70;99.90;;;;;;4995090;28;20443;-84
2023/11/08 00:40:33;;;;;;;7.37;1.77;;;9.70;99.90;;;;;;4996249;28;20447;-85
2023/11/08 00:42:59;;;;;;;7.23;1.47;;;9.70;99.90;;;;;;4988126;28;20496;-84
2023/11/08 00:45:25;;;;;;;3.70;1.33;;;9.70;99.90;;;;;;4995396;28;20185;-84
2023/11/08 00:47:52;;;;;;;4.67;1.57;;;9.80;99.90;;;;;;4993227;28;20521;-84
2023/11/08 00:50:18;;;;;;;3.03;1.60;;;9.80;99.90;;;;;;4993903;28;20272;-84
2023/11/08 00:52:43;;;;;;;3.83;1.50;;;9.80;99.90;;;;;;4998986;28;20890;-84
2023/11/08 00:55:09;;;;;;;4.50;1.60;;;9.80;99.90;;;;;;4988336;28;20427;-84
2023/11/08 00:57:36;;;;;;;3.63;1.63;;;9.80;99.90;;;;;;4987503;28;20184;-84
2023/11/08 01:00:07;;;;;;;2.13;1.50;;;9.80;99.90;;;;;;5007962;28;20441;-84
2023/11/08 01:02:33;;;;;;;4.88;1.40;;;9.80;99.90;;;;;;4993288;28;20433;-84
2023/11/08 01:04:58;;;;;;;5.83;1.27;;;9.90;99.90;;;;;;4990241;28;20199;-84
2023/11/08 01:07:24;;;;;;;5.10;1.30;;;9.90;99.90;;;;;;5001337;28;20968;-85
2023/11/08 01:09:52;;;;;;;3.77;2.10;;;9.90;99.90;;;;;;5014208;28;20272;-84
2023/11/08 01:12:18;;;;;;;4.50;1.67;;;9.90;47.50;;;;;;4990948;28;20303;-84
2023/11/08 01:14:44;;;;;;;5.67;1.40;;;10.00;1.00;;;;;;4992862;28;20483;-83
2023/11/08 01:17:13;;;;;;;6.33;1.60;;;10.00;1.00;;;;;;4999795;28;20192;-84
2023/11/08 01:19:38;;;;;;;5.50;1.70;;;10.00;1.00;;;;;;4992217;28;20634;-84
2023/11/08 01:22:09;;;;;;;6.73;1.10;;;10.00;99.90;;;;;;4997191;28;20502;-84
2023/11/08 01:24:34;;;;;;;3.40;1.30;;;10.00;99.90;;;;;;5001405;28;20557;-84
2023/11/08 01:27:01;;;;;;;3.03;1.50;;;10.00;99.90;;;;;;4990499;28;20526;-83
2023/11/08 01:29:27;;;;;;;2.47;1.20;;;10.00;99.90;;;;;;4994254;28;20192;-84
2023/11/08 01:31:56;;;;;;;4.37;1.70;;;10.00;77.80;;;;;;4999237;28;20455;-83
2023/11/08 01:34:22;;;;;;;6.93;1.50;;;10.00;1.00;;;;;;4998733;28;20498;-84
2023/11/08 01:36:48;;;;;;;5.73;1.37;;;10.00;1.00;;;;;;4999624;28;20431;-84
2023/11/08 01:39:14;;;;;;;3.43;1.10;;;10.00;1.00;;;;;;5001862;28;20191;-84
2023/11/08 01:41:50;;;;;;;2.13;1.10;;;10.00;1.00;;;;;;5000114;28;20549;-84
2023/11/08 01:44:18;;;;;;;2.70;1.10;;;10.00;1.00;;;;;;4992406;28;20626;-84
2023/11/08 01:46:52;;;;;;;2.73;1.13;;;9.90;99.90;;;;;;4996719;28;20507;-83
2023/11/08 01:49:18;;;;;;;8.37;1.80;;;9.90;1.00;;;;;;5000299;28;20498;-84
2023/11/08 01:51:49;;;;;;;4.60;1.47;;;9.90;99.90;;;;;;4999630;28;20464;-84
2023/11/08 01:54:19;;;;;;;9.03;1.17;;;10.00;99.90;;;;;;5011836;28;20435;-83
2023/11/08 01:56:46;;;;;;;5.00;1.03;;;9.90;1.00;;;;;;4996939;28;20462;-83
2023/11/08 01:59:15;;;;;;;1.50;1.10;;;10.00;99.90;;;;;;4999490;28;20474;-84
2023/11/08 02:01:41;;;;;;;3.30;1.37;;;9.90;99.90;;;;;;4995536;28;20462;-84
2023/11/08 02:04:09;;;;;;;2.57;1.27;;;9.90;99.90;;;;;;4998501;28;20490;-85
2023/11/08 02:06:35;;;;;;;3.10;1.20;;;9.90;99.90;;;;;;4999946;28;20184;-82
2023/11/08 02:09:01;;;;;;;4.63;1.30;;;10.00;30.70;;;;;;4990290;28;20568;-84
2023/11/08 02:11:29;;;;;;;3.27;1.40;;;9.90;99.90;;;;;;5003795;28;20455;-83
2023/11/08 02:13:56;;;;;;;4.93;1.13;;;9.90;99.90;;;;;;4999100;28;20445;-84
2023/11/08 02:16:22;;;;;;;3.83;1.20;;;9.90;99.90;;;;;;5003941;28;20454;-83
2023/11/08 02:18:49;;;;;;;3.90;1.23;;;9.90;99.90;;;;;;5002165;28;20451;-83
2023/11/08 02:21:15;;;;;;;3.93;1.20;;;9.80;99.90;;;;;;4999470;28;20467;-84
2023/11/08 02:23:41;;;;;;;2.70;1.00;;;9.80;1.00;;;;;;4996694;28;20497;-84
2023/11/08 02:26:09;;;;;;;3.47;1.20;;;9.80;1.00;;;;;;5000235;28;20481;-84
2023/11/08 02:28:37;;;;;;;3.13;1.30;;;9.70;1.00;;;;;;4998385;28;20482;-83
2023/11/08 02:31:05;;;;;;;5.73;1.47;;;9.70;1.00;;;;;;4999176;28;20469;-83
2023/11/08 02:33:30;;;;;;;4.13;1.37;;;9.70;99.90;;;;;;5002912;28;20933;-83
2023/11/08 02:35:59;;;;;;;3.83;1.30;;;9.60;99.90;;;;;;4998601;28;20500;-84
2023/11/08 02:38:24;;;;;;;3.00;1.00;;;9.60;99.90;;;;;;4998580;28;20216;-84
2023/11/08 02:40:50;;;;;;;3.27;1.30;;;9.60;99.90;;;;;;4995663;28;20467;-83
2023/11/08 02:43:16;;;;;;;2.80;1.20;;;9.50;99.90;;;;;;4995371;28;20219;-83
2023/11/08 02:45:42;;;;;;;3.10;1.23;;;9.50;1.00;;;;;;5002158;28;20494;-83
2023/11/08 02:48:08;;;;;;;2.30;1.30;;;9.40;1.00;;;;;;4998577;28;20463;-84
2023/11/08 02:50:36;;;;;;;2.10;1.37;;;9.40;99.90;;;;;;4999517;28;20254;-83
2023/11/08 02:53:02;;;;;;;11.17;3.33;;;9.40;99.90;;;;;;4993203;28;20438;-83
2023/11/08 02:55:28;;;;;;;5.47;1.50;;;9.40;99.90;;;;;;5002213;28;20484;-83
2023/11/08 02:57:54;;;;;;;3.07;1.10;;;9.30;99.90;;;;;;4994604;28;20952;-83
2023/11/08 03:00:20;;;;;;;4.50;1.33;;;9.30;99.90;;;;;;5000829;28;20450;-84
2023/11/08 03:02:47;;;;;;;4.23;1.53;;;9.30;1.00;;;;;;5002152;28;22677;-84
2023/11/08 03:05:13;;;;;;;5.23;1.20;;;9.30;1.00;;;;;;4999528;28;20435;-84
2023/11/08 03:07:39;;;;;;;3.87;1.43;;;9.30;1.00;;;;;;4997785;28;20466;-83
2023/11/08 03:10:05;;;;;;;1.30;1.00;;;9.30;1.00;;;;;;5002349;28;20439;-83
2023/11/08 03:12:34;;;;;;;6.00;1.90;;;9.30;1.00;;;;;;5002597;28;20176;-83
2023/11/08 03:15:07;;;;;;;4.47;1.60;;;9.20;1.00;;;;;;5002115;28;20516;-82
2023/11/08 03:17:36;;;;;;;5.57;1.70;;;9.20;1.00;;;;;;4998051;28;20533;-83
2023/11/08 03:20:02;;;;;;;7.47;1.60;;;9.20;1.00;;;;;;4993879;28;20436;-84
2023/11/08 03:22:27;;;;;;;8.30;1.50;;;9.20;1.00;;;;;;5001377;28;20537;-84
2023/11/08 03:24:53;;;;;;;1.97;1.40;;;9.20;1.00;;;;;;4998517;28;20448;-82
2023/11/08 03:27:18;;;;;;;4.07;1.53;;;9.20;4.50;;;;;;4998697;28;20224;-83
2023/11/08 03:29:44;;;;;;;3.17;1.50;;;9.20;57.40;;;;;;5002456;28;20184;-84
2023/11/08 03:32:14;;;;;;;5.17;1.30;;;9.20;21.10;;;;;;5000758;28;20208;-83
2023/11/08 03:34:43;;;;;;;2.87;1.40;;;9.20;3.20;;;;;;4995037;28;20180;-83
2023/11/08 03:37:09;;;;;;;2.70;1.87;;;9.10;50.50;;;;;;5017564;28;20542;-81
2023/11/08 03:39:35;;;;;;;3.20;1.53;;;9.10;42.60;;;;;;5001793;28;20494;-84
2023/11/08 03:42:00;;;;;;;4.23;1.27;;;9.10;65.10;;;;;;5000903;28;20451;-84
2023/11/08 03:44:28;;;;;;;5.17;2.47;;;9.10;66.30;;;;;;4992621;28;20196;-84
2023/11/08 03:46:57;;;;;;;6.33;1.50;;;9.10;96.30;;;;;;4991021;28;20367;-83
2023/11/08 03:49:22;;;;;;;2.17;1.40;;;9.10;99.90;;;;;;5001534;28;20440;-83
2023/11/08 03:51:48;;;;;;;3.47;1.40;;;9.00;99.90;;;;;;5001450;28;20454;-84
2023/11/08 03:54:14;;;;;;;4.07;1.60;;;9.00;99.90;;;;;;5002190;28;20184;-83
2023/11/08 03:56:39;;;;;;;2.60;1.27;;;9.00;99.90;;;;;;4996964;28;20267;-82
2023/11/08 03:59:06;;;;;;;3.93;1.40;;;9.00;99.90;;;;;;4999860;28;20538;-83
2023/11/08 04:01:31;;;;;;;5.70;1.77;;;9.00;99.90;;;;;;5001122;28;20693;-83
2023/11/08 04:03:57;;;;;;;5.93;1.70;;;9.00;99.90;;;;;;5001256;28;20457;-82
2023/11/08 04:06:22;;;;;;;6.40;2.23;;;8.90;99.90;;;;;;5025419;23;20634;-86
2023/11/08 04:08:48;;;;;;;3.97;1.70;;;8.90;99.90;;;;;;5015288;28;20224;-87
2023/11/08 04:11:13;;;;;;;3.20;1.33;;;8.90;99.90;;;;;;5022287;28;20183;-87
2023/11/08 04:13:39;;;;;;;7.23;1.73;;;8.90;99.90;;;;;;5023563;28;20641;-86
2023/11/08 04:16:05;;;;;;;2.80;1.50;;;8.90;99.90;;;;;;5022095;28;20175;-87
2023/11/08 04:18:33;;;;;;;3.40;1.87;;;8.90;99.90;;;;;;5018410;28;20184;-86
2023/11/08 04:20:58;;;;;;;5.93;1.70;;;8.90;99.90;;;;;;5020987;28;20434;-85
2023/11/08 04:23:24;;;;;;;6.10;2.03;;;8.90;99.90;;;;;;5019429;28;21075;-86
2023/11/08 04:25:50;;;;;;;3.43;1.20;;;8.90;99.90;;;;;;5015950;28;20708;-85
2023/11/08 04:28:17;;;;;;;3.53;1.50;;;8.90;99.90;;;;;;5022054;28;20273;-86
2023/11/08 04:30:44;;;;;;;4.97;1.90;;;8.90;99.90;;;;;;5017339;28;20918;-87
2023/11/08 04:33:09;;;;;;;2.70;1.50;;;8.80;99.90;;;;;;5021504;28;20450;-86
2023/11/08 04:35:35;;;;;;;5.70;2.13;;;8.80;99.90;;;;;;5017156;28;20932;-86
2023/11/08 04:38:00;;;;;;;7.20;1.83;;;8.80;99.90;;;;;;5017588;28;20306;-87
2023/11/08 04:40:28;;;;;;;3.67;1.60;;;8.80;99.90;;;;;;5020801;28;20607;-87
2023/11/08 04:42:53;;;;;;;6.63;1.50;;;8.80;99.90;;;;;;5010484;28;20188;-86
2023/11/08 04:45:19;;;;;;;5.03;1.97;;;8.80;99.90;;;;;;5019853;28;20966;-86
2023/11/08 04:47:44;;;;;;;4.50;1.90;;;8.70;99.90;;;;;;5020325;28;20470;-84
2023/11/08 04:50:11;;;;;;;5.67;1.93;;;8.70;99.90;;;;;;5021729;28;20188;-86
2023/11/08 04:52:36;;;;;;;3.23;1.80;;;8.70;99.90;;;;;;5013166;28;20183;-86
2023/11/08 04:55:02;;;;;;;5.30;2.03;;;8.70;99.90;;;;;;5015183;28;20516;-86
2023/11/08 04:57:29;;;;;;;4.50;1.60;;;8.70;99.90;;;;;;5018851;28;20578;-87
2023/11/08 04:59:54;;;;;;;3.43;1.43;;;8.70;99.90;;;;;;5021346;28;20198;-86
2023/11/08 05:02:20;;;;;;;2.83;1.27;;;8.70;99.90;;;;;;5020765;28;20939;-86
2023/11/08 05:04:47;;;;;;;5.27;1.40;;;8.70;99.90;;;;;;5019771;28;20253;-86
2023/11/08 05:07:13;;;;;;;4.97;1.80;;;8.70;99.90;;;;;;5036119;28;20257;-87
2023/11/08 05:09:40;;;;;;;4.00;2.07;;;8.70;99.90;;;;;;5016176;28;20804;-86
2023/11/08 05:12:09;;;;;;;4.67;1.90;;;8.70;99.90;;;;;;5013806;28;20439;-86
2023/11/08 05:14:35;;;;;;;9.43;1.87;;;8.60;99.90;;;;;;5021495;28;20430;-86
2023/11/08 05:17:01;;;;;;;3.80;1.77;;;8.60;99.90;;;;;;5021199;28;20528;-85
2023/11/08 05:19:27;;;;;;;3.93;2.70;;;8.60;99.90;;;;;;5036421;28;20434;-86
2023/11/08 05:21:53;;;;;;;7.07;1.93;;;8.60;99.90;;;;;;5020694;28;20528;-86
2023/11/08 05:24:19;;;;;;;5.30;1.97;;;8.60;99.90;;;;;;5021359;28;20422;-86
2023/11/08 05:26:45;;;;;;;8.37;4.20;;;8.50;1.00;;;;;;5020264;28;20473;-86
2023/11/08 05:29:11;;;;;;;7.70;1.60;;;8.50;1.00;;;;;;5036716;28;20474;-87
2023/11/08 05:31:37;;;;;;;4.00;1.90;;;8.50;1.00;;;;;;5020354;28;20456;-86
2023/11/08 05:34:03;;;;;;;4.70;2.00;;;8.50;1.00;;;;;;5012525;28;20266;-84
2023/11/08 05:36:30;;;;;;;5.47;1.60;;;8.50;1.00;;;;;;5019822;28;20461;-86
2023/11/08 05:38:57;;;;;;;14.33;2.30;;;8.50;1.00;;;;;;5019267;28;20529;-85
2023/11/08 05:41:23;;;;;;;8.00;1.92;;;8.50;1.00;;;;;;5021875;28;20516;-85
2023/11/08 05:43:53;;;;;;;7.03;2.13;;;8.50;1.00;;;;;;5016833;28;20293;-83
2023/11/08 05:46:19;;;;;;;4.03;1.80;;;8.50;1.00;;;;;;5019589;28;20911;-84
2023/11/08 05:48:45;;;;;;;5.23;1.90;;;8.50;1.00;;;;;;5024434;28;20516;-87
2023/11/08 05:51:10;;;;;;;2.47;1.80;;;8.50;1.00;;;;;;5022396;28;20191;-86
2023/11/08 05:53:37;;;;;;;10.93;2.90;;;8.50;1.00;;;;;;5014723;28;20179;-85
2023/11/08 05:56:03;;;;;;;8.43;3.15;;;8.50;1.00;;;;;;5020478;28;20205;-87
2023/11/08 05:58:30;;;;;;;7.40;2.20;;;8.50;1.00;;;;;;5022249;28;20223;-86
2023/11/08 06:00:57;;;;;;;7.03;2.60;;;8.50;1.00;;;;;;5021646;28;20207;-86
2023/11/08 06:03:23;;;;;;;5.37;2.03;;;8.50;1.00;;;;;;5030790;28;20195;-87
2023/11/08 06:05:48;;;;;;;7.07;2.67;;;8.50;1.00;;;;;;5025392;28;20446;-86
2023/11/08 06:08:14;;;;;;;5.43;2.30;;;8.60;1.00;;;;;;5009484;28;20227;-87
2023/11/08 06:10:39;;;;;;;5.90;3.23;;;8.60;1.00;;;;;;5007464;28;20293;-83
2023/11/08 06:13:05;;;;;;;5.67;2.50;;;8.60;1.00;;;;;;5015275;28;20176;-87
2023/11/08 06:15:30;;;;;;;9.30;3.50;;;8.60;1.00;;;;;;5024717;28;20211;-86
2023/11/08 06:17:56;;;;;;;4.57;3.07;;;8.70;1.00;;;;;;5027366;28;20234;-86
2023/11/08 06:20:22;;;;;;;9.10;3.20;;;8.70;1.00;;;;;;5032053;28;20226;-84
2023/11/08 06:22:48;;;;;;;7.37;3.10;;;8.70;1.00;;;;;;5027119;28;20191;-87
2023/11/08 06:25:14;;;;;;;8.87;3.63;;;8.80;1.00;;;;;;5040522;28;20529;-86
2023/11/08 06:27:39;;;;;;;6.20;3.90;;;8.80;1.00;;;;;;5023451;28;20474;-85
2023/11/08 06:30:05;;;;;;;7.60;2.93;;;8.80;1.00;;;;;;5023871;28;20963;-86
2023/11/08 06:32:31;;;;;;;9.43;2.83;;;8.90;1.00;;;;;;5023023;28;20190;-86
2023/11/08 06:35:00;;;;;;;6.57;3.27;;;8.90;1.00;;;;;;5020254;28;20444;-85
2023/11/08 06:37:27;;;;;;;11.17;3.70;;;9.00;1.00;;;;;;5023451;28;20242;-85
2023/11/08 06:39:52;;;;;;;9.27;2.63;;;9.00;1.00;;;;;;5019112;28;20431;-85
2023/11/08 06:42:18;;;;;;;6.17;2.60;;;9.10;1.00;;;;;;5020701;28;20801;-87
2023/11/08 06:44:44;;;;;;;11.13;3.80;;;9.10;1.00;;;;;;5024528;28;20198;-86
2023/11/08 06:47:11;;;;;;;5.90;3.00;;;9.20;99.90;;;;;;5024394;28;20269;-86
2023/11/08 06:49:37;;;;;;;6.97;3.10;;;9.20;99.90;;;;;;5018141;28;20433;-87
2023/11/08 06:52:03;;;;;;;5.40;2.87;;;9.30;99.90;;;;;;5033281;28;20489;-85
2023/11/08 06:54:30;;;;;;;10.53;3.57;;;9.30;99.90;;;;;;5022316;28;20456;-86
2023/11/08 06:56:56;;;;;;;6.33;3.00;;;9.40;99.90;;;;;;5028377;28;20477;-87
2023/11/08 06:59:22;;;;;;;13.30;3.30;;;9.40;99.90;;;;;;5013321;28;20418;-85
2023/11/08 07:01:47;;;;;;;10.00;3.00;;;9.50;99.90;;;;;;5022211;28;20191;-84
2023/11/08 07:04:13;;;;;;;7.47;2.70;;;9.60;99.90;;;;;;5016998;28;20187;-85
2023/11/08 07:06:39;;;;;;;6.33;2.87;;;9.70;99.90;;;;;;5013056;28;20295;-84
2023/11/08 07:09:06;;;;;;;10.60;2.93;;;9.80;99.90;;;;;;5009818;28;20888;-85
2023/11/08 07:11:32;;;;;;;6.27;2.50;;;9.90;45.20;;;;;;5019675;28;20516;-84
2023/11/08 07:13:57;;;;;;;3.83;2.30;;;10.00;1.00;;;;;;5017907;28;20500;-84
2023/11/08 07:16:23;;;;;;;4.97;2.33;;;10.00;1.00;;;;;;5015958;28;20207;-84
2023/11/08 07:18:49;;;;;;;7.33;3.00;;;10.10;1.00;;;;;;5019473;28;20200;-84
2023/11/08 07:21:21;;;;;;;10.27;3.53;;;10.20;1.00;;;;;;5018765;28;20195;-84
2023/11/08 07:23:47;;;;;;;7.40;2.30;;;10.30;99.90;;;;;;5014737;28;20460;-85
2023/11/08 07:26:15;;;;;;;4.80;2.50;;;10.50;99.90;;;;;;5012702;28;20537;-82
2023/11/08 07:28:43;;;;;;;11.83;2.67;;;10.80;1.00;;;;;;5019041;28;20462;-84
2023/11/08 07:31:09;;;;;;;5.30;2.70;;;10.90;99.90;;;;;;5012695;28;20438;-83
2023/11/08 07:33:37;;;;;;;5.37;1.90;;;11.00;99.90;;;;;;5005578;28;20480;-85
2023/11/08 07:36:04;;;;;;;6.37;2.17;;;11.00;7.10;;;;;;5009943;28;20176;-86
2023/11/08 07:38:30;;;;;;;11.73;2.73;;;10.90;1.00;;;;;;5016686;28;20456;-85
2023/11/08 07:40:57;;;;;;;10.07;2.20;;;10.90;1.00;;;;;;5016604;28;21004;-85
2023/11/08 07:43:23;;;;;;;4.60;1.70;;;10.80;1.00;;;;;;5020061;28;20788;-85
2023/11/08 07:45:48;;;;;;;7.97;2.67;;;10.80;1.00;;;;;;5007662;28;20528;-87
2023/11/08 07:48:14;;;;;;;4.80;2.00;;;10.80;1.00;;;;;;5020056;28;20294;-84
2023/11/08 07:50:40;;;;;;;6.13;2.00;;;10.90;1.00;;;;;;5019692;28;20288;-85
2023/11/08 07:53:06;;;;;;;10.70;2.60;;;11.00;99.90;;;;;;5015627;28;20437;-85
2023/11/08 07:55:32;;;;;;;6.17;2.70;;;11.20;1.00;;;;;;5022731;28;20180;-86
2023/11/08 07:57:57;;;;;;;5.73;2.03;;;12.10;99.90;;;;;;5021200;28;20199;-87
2023/11/08 08:00:24;;;;;;;7.20;2.30;;;13.60;99.90;;;;;;5020168;28;20838;-86
2023/11/08 08:02:50;;;;;;;5.73;1.83;;;14.20;1.00;;;;;;5021423;28;20688;-86
2023/11/08 08:05:15;;;;;;;6.03;2.07;;;15.80;1.00;;;;;;5008990;28;20506;-84
2023/11/08 08:07:41;;;;;;;5.20;1.80;;;17.60;99.90;;;;;;5015645;28;20848;-86
2023/11/08 08:10:07;;;;;;;8.10;2.13;;;19.20;99.90;;;;;;5014758;28;20725;-85
2023/11/08 08:12:35;;;;;;;4.23;2.10;;;20.10;99.90;;;;;;5014967;28;20258;-86
2023/11/08 08:15:01;;;;;;;5.90;1.57;;;20.90;99.90;;;;;;5008830;28;20410;-86
2023/11/08 08:17:27;;;;;;;6.70;1.97;;;22.10;99.90;;;;;;5007734;28;21018;-86
2023/11/08 08:19:54;;;;;;;6.17;1.63;;;22.60;99.90;;;;;;5008692;28;20179;-86
2023/11/08 08:22:21;;;;;;;5.27;1.70;;;22.80;99.90;;;;;;5013677;28;20441;-86
2023/11/08 08:24:48;;;;;;;4.93;1.60;;;23.20;99.90;;;;;;5013048;28;20450;-87
2023/11/08 08:27:14;;;;;;;4.67;2.00;;;24.10;99.90;;;;;;5008557;28;20478;-86
2023/11/08 08:29:39;;;;;;;3.73;1.97;;;22.60;99.90;;;;;;5014900;28;20438;-86
2023/11/08 08:32:05;;;;;;;7.73;2.10;;;21.10;99.90;;;;;;5017007;28;20533;-86
2023/11/08 08:34:31;;;;;;;4.43;1.97;;;19.60;99.90;;;;;;5013140;28;20190;-85
2023/11/08 08:36:56;;;;;;;4.43;1.80;;;18.10;99.90;;;;;;5017016;28;20202;-86
2023/11/08 08:39:24;;;;;;;5.60;1.70;;;17.10;99.90;;;;;;5009866;28;20219;-85
2023/11/08 08:41:50;;;;;;;4.70;2.47;;;16.30;99.90;;;;;;5009728;28;20180;-85
2023/11/08 08:44:15;;;;;;;6.87;2.03;;;15.80;99.90;;;;;;5015602;28;20452;-85
2023/11/08 08:46:43;;;;;;;4.40;1.60;;;15.50;99.90;;;;;;5012637;28;20199;-85
2023/11/08 08:49:09;;;;;;;5.43;1.73;;;15.60;99.90;;;;;;5013945;28;20282;-86
2023/11/08 08:51:35;;;;;;;6.37;1.80;;;15.70;99.90;;;;;;5020288;28;20418;-85
2023/11/08 08:54:00;;;;;;;6.43;1.67;;;16.50;99.90;;;;;;5019020;28;20209;-85
2023/11/08 08:56:27;;;;;;;5.30;1.97;;;16.60;99.90;;;;;;5024420;28;20210;-85
2023/11/08 08:58:53;;;;;;;4.60;1.77;;;16.40;99.90;;;;;;5019807;28;20182;-85
2023/11/08 09:01:19;;;;;;;7.70;2.50;;;16.10;99.90;;;;;;5010316;28;20450;-85
2023/11/08 09:03:45;;;;;;;6.87;2.07;;;16.30;99.90;;;;;;5018255;28;20230;-85
2023/11/08 09:06:11;;;;;;;9.03;2.27;;;17.00;99.90;;;;;;5016770;28;20425;-86
2023/11/08 09:08:37;;;;;;;7.93;1.80;;;19.80;99.90;;;;;;5009337;28;20497;-86
2023/11/08 09:11:03;;;;;;;4.40;1.97;;;21.90;99.90;;;;;;5011715;28;20431;-87
2023/11/08 09:13:29;;;;;;;5.83;1.70;;;23.60;99.90;;;;;;5015554;28;20488;-83
2023/11/08 09:15:55;;;;;;;7.67;2.43;;;24.80;99.90;;;;;;5014992;28;20177;-83
2023/11/08 09:18:21;;;;;;;4.40;1.93;;;26.50;99.90;;;;;;5008374;28;20517;-83
2023/11/08 09:20:48;;;;;;;6.97;1.83;;;27.50;99.90;;;;;;5011967;28;20667;-84
2023/11/08 09:23:13;;;;;;;7.20;2.00;;;28.20;99.90;;;;;;5013979;28;20190;-84
2023/11/08 09:25:39;;;;;;;8.90;2.40;;;28.70;99.90;;;;;;5008783;28;20453;-84
2023/11/08 09:28:04;;;;;;;7.13;1.93;;;29.30;99.90;;;;;;5013920;28;22195;-84
2023/11/08 09:30:33;;;;;;;6.80;1.70;;;28.00;99.90;;;;;;5013894;28;20256;-84
2023/11/08 09:32:58;;;;;;;5.83;1.60;;;26.00;99.90;;;;;;5006740;28;20175;-83
2023/11/08 09:35:24;;;;;;;7.67;2.20;;;24.50;99.90;;;;;;5021169;28;20493;-84
2023/11/08 09:37:49;;;;;;;5.80;2.00;;;23.20;99.90;;;;;;5014274;28;20215;-84
2023/11/08 09:40:16;;;;;;;9.63;2.43;;;22.90;99.90;;;;;;5017426;28;20195;-83
2023/11/08 09:42:42;;;;;;;8.10;2.17;;;22.50;99.90;;;;;;5012994;28;20187;-83
2023/11/08 09:45:11;;;;;;;4.97;1.90;;;21.80;99.90;;;;;;5017042;28;20514;-82
2023/11/08 09:47:37;;;;;;;5.57;2.60;;;20.90;99.90;;;;;;5018014;28;20215;-82
2023/11/08 09:50:08;;;;;;;3.27;1.60;;;20.00;99.90;;;;;;5020539;28;20490;-84
2023/11/08 09:52:34;;;;;;;8.60;2.17;;;19.30;99.90;;;;;;5018855;28;20828;-85
2023/11/08 09:55:00;;;;;;;5.17;1.93;;;18.60;99.90;;;;;;5014749;28;20456;-83
2023/11/08 09:57:26;;;;;;;12.93;1.90;;;18.30;99.90;;;;;;5016849;28;20478;-83
2023/11/08 09:59:55;;;;;;;11.50;1.97;;;17.90;99.90;;;;;;5011932;28;20187;-84
2023/11/08 10:02:20;;;;;;;8.90;1.90;;;17.70;99.90;;;;;;5007794;28;20449;-84
2023/11/08 10:04:47;;;;;;;3.37;1.47;;;17.20;99.90;;;;;;5007313;28;20447;-83
2023/11/08 10:07:13;;;;;;;7.10;2.80;;;17.00;99.90;;;;;;5012550;28;20465;-85
2023/11/08 10:09:39;;;;;;;5.13;1.83;;;16.90;99.90;;;;;;5015250;28;20434;-83
2023/11/08 10:12:06;;;;;;;6.77;1.80;;;16.60;99.90;;;;;;5016599;28;20422;-85
2023/11/08 10:14:34;;;;;;;8.40;1.90;;;16.50;99.90;;;;;;5017148;28;20190;-84
2023/11/08 10:17:00;;;;;;;5.03;2.10;;;16.40;99.90;;;;;;5017085;28;20529;-85
2023/11/08 10:19:45;;;;;;;6.33;1.60;;;16.30;99.90;;;;;;5015455;28;20482;-84
2023/11/08 10:22:21;;;;;;;4.60;1.33;;;16.10;99.90;;;;;;5028745;28;20453;-84
2023/11/08 10:24:56;;;;;;;10.47;1.90;;;16.20;99.90;;;;;;5011844;28;20949;-86
2023/11/08 10:27:22;;;;;;;3.10;1.63;;;16.30;99.90;;;;;;5015786;28;20556;-85
2023/11/08 10:29:50;;;;;;;6.43;1.60;;;16.30;99.90;;;;;;5020686;28;20422;-85
2023/11/08 10:32:23;;;;;;;5.27;1.50;;;16.40;99.90;;;;;;5025657;28;20406;-85
2023/11/08 10:34:50;;;;;;;4.27;1.40;;;16.40;99.90;;;;;;5024890;28;20490;-84
2023/11/08 10:37:26;;;;;;;5.23;2.00;;;16.30;99.90;;;;;;5022798;28;20473;-86
2023/11/08 10:39:57;;;;;;;3.27;1.50;;;16.10;99.90;;;;;;5024592;28;20418;-84
2023/11/08 10:42:24;;;;;;;8.20;2.40;;;16.00;99.90;;;;;;5022812;28;20962;-86
2023/11/08 10:44:51;;;;;;;6.63;1.67;;;15.80;99.90;;;;;;5021978;28;20470;-85
2023/11/08 10:47:17;;;;;;;3.93;1.63;;;15.60;99.90;;;;;;5021244;28;20458;-84
2023/11/08 10:49:50;;;;;;;3.53;1.70;;;15.40;99.90;;;;;;5015706;28;20442;-83
2023/11/08 10:52:18;;;;;;;3.63;1.53;;;15.20;99.90;;;;;;5020669;28;20176;-85
2023/11/08 10:54:44;;;;;;;3.90;1.60;;;15.40;99.90;;;;;;5016639;28;20426;-83
2023/11/08 10:57:13;;;;;;;4.50;1.57;;;15.60;99.90;;;;;;5017638;28;20446;-86
2023/11/08 10:59:41;;;;;;;5.50;2.13;;;15.90;99.90;;;;;;5022570;28;20426;-84
2023/11/08 11:02:20;;;;;;;5.30;1.30;;;15.90;99.90;;;;;;5019651;28;20469;-84
2023/11/08 11:04:51;;;;;;;5.30;1.80;;;15.90;99.90;;;;;;5021061;28;20773;-85
2023/11/08 11:07:17;;;;;;;5.20;1.50;;;16.10;99.90;;;;;;5020194;28;21109;-85
2023/11/08 11:09:44;;;;;;;4.67;1.70;;;16.30;99.90;;;;;;5032315;28;20430;-83
2023/11/08 11:12:16;;;;;;;5.73;1.80;;;16.30;99.90;;;;;;5014552;28;20434;-85
2023/11/08 11:14:51;;;;;;;4.30;1.60;;;16.30;99.90;;;;;;5013636;28;20434;-84
2023/11/08 11:17:24;;;;;;;5.43;1.13;;;16.80;99.90;;;;;;5011813;28;20461;-84
2023/11/08 11:19:55;;;;;;;4.43;2.00;;;17.20;99.90;;;;;;5018596;28;20426;-85
2023/11/08 11:22:22;;;;;;;6.03;1.30;;;17.20;99.90;;;;;;5017396;28;20462;-86
2023/11/08 11:24:48;;;;;;;5.63;1.80;;;17.20;99.90;;;;;;5017763;28;20684;-84
2023/11/08 11:27:32;;;;;;;5.37;1.30;;;17.20;99.90;;;;;;5015902;28;20450;-86
2023/11/08 11:30:17;;;;;;;6.00;1.13;;;16.80;99.90;;;;;;5018282;28;20422;-85
2023/11/08 11:32:46;;;;;;;6.53;1.70;;;16.90;99.90;;;;;;5017828;28;20410;-85
2023/11/08 11:35:50;;;;;;;1.80;1.00;;;16.90;99.90;;;;;;5015415;28;20449;-85
2023/11/08 11:38:23;;;;;;;3.73;1.20;;;16.80;99.90;;;;;;5011379;28;20450;-85
2023/11/08 11:41:22;;;;;;;3.77;1.20;;;16.90;99.90;;;;;;5016056;28;20816;-85
2023/11/08 11:43:50;;;;;;;10.60;2.30;;;16.80;99.90;;;;;;5015443;28;21258;-85
2023/11/08 11:46:20;;;;;;;6.47;1.57;;;16.60;99.90;;;;;;5016788;28;20771;-85
2023/11/08 11:48:46;;;;;;;5.07;1.10;;;16.70;99.90;;;;;;5012713;28;21002;-84
2023/11/08 11:51:11;;;;;;;2.87;1.20;;;16.80;99.90;;;;;;5014743;28;20533;-85
2023/11/08 11:53:37;;;;;;;3.80;1.60;;;16.80;99.90;;;;;;5025898;28;20183;-84
2023/11/08 11:56:05;;;;;;;3.93;1.50;;;16.80;99.90;;;;;;5011483;28;20184;-84
2023/11/08 11:58:31;;;;;;;6.03;1.33;;;16.80;99.90;;;;;;5016514;28;20849;-85
2023/11/08 12:00:57;;;;;;;2.63;1.07;;;17.00;99.90;;;;;;5011382;28;20447;-85
2023/11/08 12:03:26;;;;;;;5.97;1.40;;;17.10;99.90;;;;;;5015851;28;20187;-85
2023/11/08 12:05:55;;;;;;;4.40;1.27;;;17.20;99.90;;;;;;5013938;28;20461;-85
2023/11/08 12:08:23;;;;;;;3.00;1.00;;;17.10;99.90;;;;;;5020343;28;20470;-84
2023/11/08 12:10:49;;;;;;;2.70;1.60;;;17.00;99.90;;;;;;5018950;28;20509;-84
2023/11/08 12:13:14;;;;;;;5.33;1.20;;;16.80;99.90;;;;;;5019220;28;20845;-84
2023/11/08 12:15:40;;;;;;;4.80;1.60;;;16.70;99.90;;;;;;5021341;28;20258;-84
2023/11/08 12:18:07;;;;;;;4.30;1.43;;;16.70;99.90;;;;;;5020729;28;20199;-83
2023/11/08 12:20:40;;;;;;;3.20;1.30;;;16.50;99.90;;;;;;5019667;28;20186;-85
2023/11/08 12:23:06;;;;;;;6.07;1.43;;;16.40;99.90;;;;;;5020644;28;20414;-85
2023/11/08 12:25:32;;;;;;;5.23;1.70;;;16.30;99.90;;;;;;5019565;28;20414;-84
2023/11/08 12:27:59;;;;;;;5.10;1.37;;;16.20;99.90;;;;;;5018650;28;20974;-85
2023/11/08 12:30:28;;;;;;;7.80;1.17;;;16.00;99.90;;;;;;5021115;28;20420;-84
2023/11/08 12:32:58;;;;;;;5.63;1.10;;;15.80;99.90;;;;;;5020402;28;20414;-85
2023/11/08 12:35:24;;;;;;;1.67;1.30;;;15.60;99.90;;;;;;5020675;28;20437;-84
2023/11/08 12:37:50;;;;;;;4.30;1.37;;;15.40;99.90;;;;;;5032055;28;20521;-85
2023/11/08 12:40:24;;;;;;;4.37;1.70;;;15.20;99.90;;;;;;5032923;28;20529;-84
2023/11/08 12:42:50;;;;;;;3.83;1.37;;;15.30;99.90;;;;;;5020906;28;20182;-85
2023/11/08 12:45:32;;;;;;;3.03;1.00;;;15.20;99.90;;;;;;5021345;28;20935;-84
2023/11/08 12:48:03;;;;;;;5.30;1.50;;;15.20;99.90;;;;;;5016938;28;20450;-84
2023/11/08 12:50:28;;;;;;;4.53;1.73;;;15.20;99.90;;;;;;5021090;28;20501;-85
2023/11/08 12:52:54;;;;;;;4.00;1.40;;;15.10;99.90;;;;;;5019965;28;20444;-84
2023/11/08 12:55:19;;;;;;;2.47;0.80;;;15.00;99.90;;;;;;5018055;28;20546;-85